createdAt,value
2022-12-08T08:21:48.941Z,13.00
2022-12-08T08:24:16.240Z,14.13
2022-12-08T08:26:43.155Z,15.88
2022-12-08T08:29:10.041Z,16.35
2022-12-08T08:31:36.904Z,18.45
2022-12-08T08:34:06.373Z,18.17
2022-12-08T08:36:33.563Z,16.83
2022-12-08T08:39:00.339Z,14.30
2022-12-08T08:41:27.177Z,13.05
2022-12-08T08:43:55.320Z,13.85
2022-12-08T08:46:22.252Z,14.35
2022-12-08T08:48:49.133Z,15.73
2022-12-08T08:51:16.110Z,15.38
2022-12-08T08:53:43.518Z,14.10
2022-12-08T08:56:15.982Z,14.88
2022-12-08T08:58:42.798Z,16.25
2022-12-08T09:01:14.426Z,15.25
2022-12-08T09:03:41.332Z,14.43
2022-12-08T09:06:10.565Z,15.77
2022-12-08T09:08:37.374Z,14.25
2022-12-08T09:11:04.365Z,16.80
2022-12-08T09:13:31.208Z,17.83
2022-12-08T09:15:58.236Z,14.57
2022-12-08T09:18:25.223Z,15.30
2022-12-08T09:20:52.107Z,15.75
2022-12-08T09:23:19.046Z,16.35
2022-12-08T09:25:46.121Z,16.85
2022-12-08T09:28:13.914Z,16.42
2022-12-08T09:30:41.276Z,17.35
2022-12-08T09:33:08.197Z,18.58
2022-12-08T09:35:35.059Z,17.42
2022-12-08T09:38:01.903Z,16.90
2022-12-08T09:40:32.743Z,18.13
2022-12-08T09:43:08.638Z,17.67
2022-12-08T09:45:36.532Z,17.45
2022-12-08T09:48:18.315Z,18.77
2022-12-08T09:50:58.989Z,18.47
2022-12-08T09:53:32.076Z,20.50
2022-12-08T09:56:11.427Z,19.52
2022-12-08T09:58:59.186Z,20.80
2022-12-08T10:01:44.232Z,21.80
2022-12-08T10:04:32.455Z,22.00
2022-12-08T10:07:22.582Z,22.75
2022-12-08T10:10:14.556Z,22.83
2022-12-08T10:12:55.072Z,23.63
2022-12-08T10:15:44.204Z,22.52
2022-12-08T10:18:16.922Z,21.95
2022-12-08T10:20:46.114Z,23.02
2022-12-08T10:23:12.899Z,21.67
2022-12-08T10:25:45.694Z,22.45
2022-12-08T10:28:12.884Z,21.77
2022-12-08T10:30:43.095Z,22.20
2022-12-08T10:33:17.884Z,21.73
2022-12-08T10:35:50.855Z,22.08
2022-12-08T10:38:32.811Z,19.67
2022-12-08T10:41:10.985Z,21.07
2022-12-08T10:43:44.491Z,20.42
2022-12-08T10:46:26.047Z,19.35
2022-12-08T10:48:57.873Z,17.92
2022-12-08T10:51:33.918Z,19.30
2022-12-08T10:54:01.133Z,19.05
2022-12-08T10:56:30.330Z,19.00
2022-12-08T10:59:18.560Z,21.23
2022-12-08T11:01:51.226Z,19.60
2022-12-08T11:04:35.168Z,20.67
2022-12-08T11:07:04.691Z,20.92
2022-12-08T11:09:41.226Z,20.30
2022-12-08T11:12:15.859Z,20.92
2022-12-08T11:14:42.662Z,18.42
2022-12-08T11:17:13.229Z,19.27
2022-12-08T11:19:45.978Z,18.63
2022-12-08T11:22:31.055Z,18.42
2022-12-08T11:25:22.467Z,17.40
2022-12-08T11:27:52.995Z,18.35
2022-12-08T11:30:22.786Z,17.90
2022-12-08T11:33:03.436Z,16.95
2022-12-08T11:35:38.698Z,16.35
2022-12-08T11:38:29.935Z,17.73
2022-12-08T11:41:21.101Z,17.67
2022-12-08T11:44:21.957Z,18.13
2022-12-08T11:47:13.217Z,18.70
2022-12-08T11:49:42.611Z,18.98
2022-12-08T11:52:28.098Z,17.15
2022-12-08T11:54:59.927Z,18.35
2022-12-08T11:57:28.592Z,17.77
2022-12-08T11:59:58.112Z,16.95
2022-12-08T12:02:28.994Z,18.55
2022-12-08T12:05:02.782Z,17.98
2022-12-08T12:08:05.552Z,19.30
2022-12-08T12:10:32.322Z,18.08
2022-12-08T12:13:30.238Z,19.13
2022-12-08T12:16:19.918Z,19.73
2022-12-08T12:19:14.577Z,19.25
2022-12-08T12:21:45.489Z,19.88
2022-12-08T12:24:26.699Z,19.38
2022-12-08T12:27:05.107Z,19.30
2022-12-08T12:29:35.370Z,18.88
2022-12-08T12:32:08.643Z,18.40
2022-12-08T12:34:44.079Z,18.73
2022-12-08T12:37:16.607Z,19.38
2022-12-08T12:39:52.586Z,19.40
2022-12-08T12:43:06.037Z,19.52
2022-12-08T12:45:34.818Z,18.95
2022-12-08T12:48:01.588Z,18.52
2022-12-08T12:50:34.673Z,18.67
2022-12-08T12:53:12.305Z,19.45
2022-12-08T12:55:57.187Z,18.80
2022-12-08T12:58:36.614Z,18.95
2022-12-08T13:01:12.792Z,19.70
2022-12-08T13:03:41.527Z,19.77
2022-12-08T13:06:14.643Z,17.85
2022-12-08T13:08:51.860Z,19.50
2022-12-08T13:11:19.148Z,18.98
2022-12-08T13:14:06.359Z,19.77
2022-12-08T13:16:37.268Z,19.73
2022-12-08T13:19:12.938Z,19.23
2022-12-08T13:21:40.581Z,18.85
2022-12-08T13:24:10.486Z,19.20
2022-12-08T13:27:11.268Z,20.77
2022-12-08T13:29:39.442Z,25.33
2022-12-08T13:32:09.826Z,20.33
2022-12-08T13:34:42.097Z,21.15
2022-12-08T13:37:12.052Z,19.70
2022-12-08T13:40:28.189Z,19.42
2022-12-08T13:43:18.901Z,20.60
2022-12-08T13:46:52.579Z,20.30
2022-12-08T13:55:26.815Z,20.70
2022-12-08T13:57:36.052Z,20.35
2022-12-08T14:00:16.448Z,19.58
2022-12-08T14:02:51.284Z,20.50
2022-12-08T14:05:34.660Z,19.77
2022-12-08T14:08:58.346Z,20.08
2022-12-08T14:11:33.669Z,18.25
2022-12-08T14:14:07.499Z,19.60
2022-12-08T14:16:42.922Z,19.45
2022-12-08T14:19:20.215Z,20.63
2022-12-08T14:21:51.183Z,21.48
2022-12-08T14:24:18.032Z,20.95
2022-12-08T14:26:48.515Z,21.60
2022-12-08T14:29:36.007Z,22.27
2022-12-08T14:32:02.915Z,23.02
2022-12-08T14:34:29.751Z,22.02
2022-12-08T14:36:56.644Z,21.15
2022-12-08T14:39:23.762Z,20.67
2022-12-08T14:42:00.995Z,21.75
2022-12-08T14:44:32.974Z,20.13
2022-12-08T14:47:10.516Z,21.75
2022-12-08T14:49:40.148Z,20.13
2022-12-08T14:52:13.114Z,19.90
2022-12-08T14:54:40.851Z,21.13
2022-12-08T14:57:10.443Z,21.30
2022-12-08T14:59:39.175Z,21.13
2022-12-08T15:02:19.344Z,22.63
2022-12-08T15:04:48.529Z,21.70
2022-12-08T15:07:18.962Z,21.70
2022-12-08T15:09:48.992Z,22.52
2022-12-08T15:12:26.173Z,22.70
2022-12-08T15:15:01.817Z,24.00
2022-12-08T15:17:42.071Z,23.42
2022-12-08T15:20:35.634Z,26.48
2022-12-08T15:23:02.945Z,25.42
2022-12-08T15:25:29.848Z,25.90
2022-12-08T15:27:57.995Z,27.60
2022-12-08T15:30:28.825Z,26.42
2022-12-08T15:32:56.272Z,26.92
2022-12-08T15:35:23.833Z,29.73
2022-12-08T15:37:50.721Z,28.85
2022-12-08T15:40:20.244Z,27.33
2022-12-08T15:42:47.444Z,24.98
2022-12-08T15:45:15.378Z,23.35
2022-12-08T15:47:43.401Z,22.02
2022-12-08T15:50:21.835Z,23.90
2022-12-08T15:52:50.077Z,23.00
2022-12-08T15:55:19.195Z,20.67
2022-12-08T16:00:52.329Z,21.63
2022-12-08T16:09:25.190Z,24.40
2022-12-08T16:12:10.841Z,25.95
2022-12-08T16:17:26.875Z,27.25
2022-12-08T16:19:54.392Z,30.40
2022-12-08T16:22:54.178Z,30.55
2022-12-08T16:25:19.455Z,28.48
2022-12-08T16:30:36.470Z,26.63
2022-12-08T16:33:03.505Z,24.42
2022-12-08T16:35:31.366Z,27.35
2022-12-08T16:37:58.275Z,28.60
2022-12-08T16:40:25.325Z,30.58
2022-12-08T16:42:52.206Z,32.78
2022-12-08T16:45:22.551Z,35.50
2022-12-08T16:47:53.746Z,32.83
2022-12-08T16:50:22.087Z,33.53
2022-12-08T16:52:49.767Z,34.83
2022-12-08T16:55:19.008Z,39.17
2022-12-08T16:57:47.454Z,32.03
2022-12-08T17:00:18.292Z,29.70
2022-12-08T17:02:45.224Z,34.47
2022-12-08T17:05:17.479Z,33.97
2022-12-08T17:07:46.476Z,35.35
2022-12-08T17:10:16.751Z,35.45
2022-12-08T17:12:44.410Z,36.83
2022-12-08T17:15:15.471Z,33.80
2022-12-08T17:17:42.649Z,40.95
2022-12-08T17:20:13.808Z,41.65
2022-12-08T17:22:43.794Z,47.03
2022-12-08T17:25:11.092Z,43.38
2022-12-08T17:27:39.196Z,42.13
2022-12-08T17:30:07.750Z,35.47
2022-12-08T17:32:34.924Z,34.47
2022-12-08T17:35:01.995Z,36.83
2022-12-08T17:37:29.164Z,39.13
2022-12-08T17:39:56.435Z,39.35
2022-12-08T17:42:26.026Z,36.33
2022-12-08T17:44:54.182Z,31.20
2022-12-08T17:47:21.463Z,30.15
2022-12-08T17:49:48.510Z,31.70
2022-12-08T17:52:15.504Z,31.75
2022-12-08T17:54:42.407Z,34.35
2022-12-08T17:57:09.346Z,34.28
2022-12-08T17:59:36.442Z,35.22
2022-12-08T18:02:04.411Z,33.20
2022-12-08T18:04:31.451Z,34.00
2022-12-08T18:07:00.287Z,36.35
2022-12-08T18:09:27.330Z,32.90
2022-12-08T18:11:54.201Z,30.70
2022-12-08T18:14:21.105Z,33.67
2022-12-08T18:16:49.354Z,34.10
2022-12-08T18:19:16.847Z,33.47
2022-12-08T18:21:44.132Z,30.63
2022-12-08T18:24:19.009Z,33.25
2022-12-08T18:26:46.390Z,31.38
2022-12-08T18:29:13.203Z,31.55
2022-12-08T18:31:40.037Z,31.75
2022-12-08T18:34:09.634Z,32.10
2022-12-08T18:36:36.506Z,32.33
2022-12-08T18:39:08.779Z,31.65
2022-12-08T18:41:37.561Z,32.10
2022-12-08T18:44:04.703Z,34.85
2022-12-08T18:46:34.506Z,35.45
2022-12-08T18:49:01.426Z,36.92
2022-12-08T18:51:28.395Z,40.65
2022-12-08T18:53:55.258Z,38.47
2022-12-08T18:56:30.559Z,39.58
2022-12-08T18:59:03.290Z,40.95
2022-12-08T19:01:38.382Z,40.10
2022-12-08T19:06:57.199Z,37.75
2022-12-08T19:09:26.672Z,34.53
2022-12-08T19:11:54.045Z,32.78
2022-12-08T19:14:27.829Z,33.28
2022-12-08T19:16:54.983Z,34.20
2022-12-08T19:19:21.806Z,34.00
2022-12-08T19:21:48.713Z,32.03
2022-12-08T19:24:15.528Z,32.22
2022-12-08T19:26:42.705Z,31.98
2022-12-08T19:29:10.181Z,32.63
2022-12-08T19:31:37.355Z,32.58
2022-12-08T19:34:06.175Z,34.78
2022-12-08T19:36:35.666Z,33.17
2022-12-08T19:39:22.587Z,32.67
2022-12-08T19:42:09.170Z,32.10
2022-12-08T19:44:54.294Z,31.25
2022-12-08T19:47:23.696Z,31.25
2022-12-08T19:49:51.136Z,31.17
2022-12-08T19:52:18.723Z,31.58
2022-12-08T19:54:45.774Z,30.90
2022-12-08T19:57:13.149Z,31.48
2022-12-08T19:59:40.073Z,31.25
2022-12-08T20:02:07.496Z,29.70
2022-12-08T20:04:34.430Z,32.38
2022-12-08T20:07:01.320Z,30.77
2022-12-08T20:09:28.169Z,29.75
2022-12-08T20:11:55.084Z,31.60
2022-12-08T20:14:23.312Z,30.65
2022-12-08T20:16:50.741Z,30.52
2022-12-08T20:19:17.839Z,30.48
2022-12-08T20:21:44.797Z,29.75
2022-12-08T20:24:11.834Z,31.92
2022-12-08T20:26:38.770Z,30.35
2022-12-08T20:29:05.682Z,29.58
2022-12-08T20:31:33.677Z,30.63
2022-12-08T20:34:01.751Z,28.80
2022-12-08T20:36:29.161Z,29.58
2022-12-08T20:38:56.362Z,28.80
2022-12-08T20:41:23.700Z,30.35
2022-12-08T20:43:51.868Z,30.58
2022-12-08T20:46:20.396Z,30.42
2022-12-08T20:48:48.775Z,30.23
2022-12-08T20:51:20.026Z,31.27
2022-12-08T20:53:47.157Z,32.05
2022-12-08T20:56:19.730Z,32.85
2022-12-08T20:58:47.363Z,34.72
2022-12-08T21:01:17.615Z,35.20
2022-12-08T21:03:45.363Z,40.33
2022-12-08T21:06:13.409Z,34.97
2022-12-08T21:08:43.868Z,33.22
2022-12-08T21:11:10.950Z,30.08
2022-12-08T21:13:38.595Z,28.05
2022-12-08T21:16:06.398Z,30.63
2022-12-08T21:18:39.113Z,32.13
2022-12-08T21:21:09.727Z,29.20
2022-12-08T21:23:36.611Z,30.83
2022-12-08T21:26:09.623Z,29.85
2022-12-08T21:28:36.754Z,34.88
2022-12-08T21:31:07.838Z,35.00
2022-12-08T21:33:35.082Z,36.58
2022-12-08T21:36:09.458Z,34.80
2022-12-08T21:38:38.517Z,35.53
2022-12-08T21:41:08.325Z,34.75
2022-12-08T21:43:35.502Z,37.15
2022-12-08T21:46:02.710Z,35.88
2022-12-08T21:48:29.659Z,35.35
